Time;durP1;ratioP1;P1;durP2;ratioP2;P2;SDS_P1;SDS_P2;PMS_P1;PMS_P2;Temp;Humidity;BMP_temperature;BMP_pressure;BME280_temperature;BME280_humidity;BME280_pressure;Samples;Min_cycle;Max_cycle;Signal;HPM_P1;HPM_P2
2022/05/08 00:01:07;;;;;;;6.33;4.07;;;;;;;15.09;85.49;101822.13;5075091;28;20468;-71
2022/05/08 00:03:33;;;;;;;3.90;3.50;;;;;;;15.02;86.06;101829.91;5074595;28;20473;-70
2022/05/08 00:06:02;;;;;;;4.50;2.63;;;;;;;15.05;86.19;101824.66;5074807;28;20499;-70
2022/05/08 00:08:29;;;;;;;4.90;2.90;;;;;;;15.11;85.83;101822.66;5074724;28;20461;-71
2022/05/08 00:10:57;;;;;;;4.43;2.67;;;;;;;15.17;85.86;101817.91;5074855;28;20515;-74
2022/05/08 00:13:23;;;;;;;2.83;2.20;;;;;;;15.21;85.52;101818.91;5074745;28;20844;-74
2022/05/08 00:15:50;;;;;;;2.63;1.90;;;;;;;15.18;83.80;101820.31;5074679;28;20815;-73
2022/05/08 00:18:16;;;;;;;2.03;1.67;;;;;;;15.22;82.19;101826.78;5074595;28;20483;-74
2022/05/08 00:20:43;;;;;;;4.03;2.10;;;;;;;15.20;80.86;101829.03;5074650;28;20452;-73
2022/05/08 00:23:09;;;;;;;1.87;1.67;;;;;;;15.17;79.13;101828.81;5074591;28;20534;-73
2022/05/08 00:25:35;;;;;;;1.90;1.40;;;;;;;15.20;77.53;101834.50;5074545;28;20445;-73
2022/05/08 00:28:03;;;;;;;1.60;1.50;;;;;;;15.22;77.00;101826.78;5074447;28;20519;-73
2022/05/08 00:30:30;;;;;;;1.47;1.07;;;;;;;15.20;77.12;101829.03;5074421;28;20437;-73
2022/05/08 00:32:56;;;;;;;2.03;1.50;;;;;;;15.23;77.25;101839.34;5074397;28;20442;-73
2022/05/08 00:35:23;;;;;;;4.10;1.93;;;;;;;15.24;77.22;101835.50;5074072;28;20449;-73
2022/05/08 00:37:49;;;;;;;2.30;1.50;;;;;;;15.15;78.22;101834.59;5073630;28;20473;-73
2022/05/08 00:40:15;;;;;;;1.90;1.70;;;;;;;15.18;79.29;101831.22;5074101;28;20822;-74
2022/05/08 00:42:43;;;;;;;3.20;1.87;;;;;;;15.01;79.91;101840.03;5073984;28;20492;-73
2022/05/08 00:45:11;;;;;;;9.10;1.90;;;;;;;14.93;80.52;101845.34;5073955;28;20441;-74
2022/05/08 00:47:38;;;;;;;2.13;1.20;;;;;;;14.71;79.94;101837.81;5074196;28;20461;-73
2022/05/08 00:50:06;;;;;;;5.13;2.00;;;;;;;14.58;80.93;101826.56;5073969;28;20450;-73
2022/05/08 00:52:35;;;;;;;2.60;1.30;;;;;;;14.44;82.87;101833.03;5073857;28;20448;-73
2022/05/08 00:55:02;;;;;;;1.80;1.17;;;;;;;14.24;85.49;101839.59;5073931;28;20441;-73
2022/05/08 00:57:29;;;;;;;1.57;1.33;;;;;;;13.97;86.54;101830.13;5073817;28;20456;-73
2022/05/08 00:59:57;;;;;;;1.97;1.30;;;;;;;13.72;88.34;101828.56;5073897;28;20441;-73
2022/05/08 01:02:25;;;;;;;2.23;1.23;;;;;;;13.47;92.08;101834.31;5073318;28;20484;-73
2022/05/08 01:04:51;;;;;;;2.30;1.10;;;;;;;13.56;93.66;101825.22;5073728;28;20456;-72
2022/05/08 01:07:18;;;;;;;0.87;0.70;;;;;;;13.58;96.60;101833.88;5073692;28;20474;-72
2022/05/08 01:09:45;;;;;;;3.37;1.23;;;;;;;13.58;97.26;101833.09;5073679;28;20444;-73
2022/05/08 01:12:11;;;;;;;8.83;1.43;;;;;;;13.57;97.79;101826.03;5073580;28;20818;-73
2022/05/08 01:14:38;;;;;;;3.43;1.87;;;;;;;13.56;98.74;101833.38;5073646;28;20498;-73
2022/05/08 01:17:05;;;;;;;2.13;1.43;;;;;;;13.51;100.00;101830.72;5073496;28;20491;-73
2022/05/08 01:19:33;;;;;;;1.10;0.77;;;;;;;13.56;100.00;101827.13;5073576;28;20472;-73
2022/05/08 01:22:01;;;;;;;1.37;1.03;;;;;;;13.50;100.00;101831.00;5073485;28;20446;-73
2022/05/08 01:24:27;;;;;;;2.50;1.30;;;;;;;13.47;100.00;101832.41;5073484;28;20447;-73
2022/05/08 01:26:54;;;;;;;2.60;1.10;;;;;;;13.45;100.00;101828.34;5073313;28;20469;-73
2022/05/08 01:29:20;;;;;;;1.80;1.50;;;;;;;13.43;100.00;101827.84;5072980;28;20961;-73
2022/05/08 01:31:46;;;;;;;1.37;0.93;;;;;;;13.36;100.00;101831.69;5072987;28;20441;-73
2022/05/08 01:34:13;;;;;;;1.77;1.20;;;;;;;13.33;100.00;101828.75;5073303;28;20442;-73
2022/05/08 01:36:41;;;;;;;1.13;0.93;;;;;;;13.24;100.00;101827.78;5072649;28;20473;-74
2022/05/08 01:39:09;;;;;;;1.30;1.10;;;;;;;13.16;100.00;101831.88;5072907;28;20935;-73
2022/05/08 01:41:35;;;;;;;2.23;1.10;;;;;;;13.11;100.00;101821.88;5072883;28;21012;-73
2022/05/08 01:44:02;;;;;;;3.13;1.53;;;;;;;13.08;100.00;101824.34;5073153;28;20492;-73
2022/05/08 01:46:28;;;;;;;2.03;1.50;;;;;;;13.10;100.00;101828.41;5072983;28;20441;-73
2022/05/08 01:48:54;;;;;;;1.47;1.13;;;;;;;13.03;100.00;101821.69;5073084;28;20445;-73
2022/05/08 01:51:22;;;;;;;1.70;1.30;;;;;;;13.02;100.00;101826.31;5073145;28;20922;-73
2022/05/08 01:53:48;;;;;;;2.73;1.60;;;;;;;13.05;100.00;101823.00;5073151;28;20661;-73
2022/05/08 01:56:16;;;;;;;1.00;0.90;;;;;;;13.12;100.00;101828.13;5072723;28;20467;-72
2022/05/08 01:58:43;;;;;;;4.67;1.93;;;;;;;13.22;100.00;101830.75;5073076;28;20490;-71
2022/05/08 02:01:10;;;;;;;4.50;2.10;;;;;;;13.28;100.00;101831.50;5073250;28;20481;-71
2022/05/08 02:03:38;;;;;;;2.10;1.73;;;;;;;13.31;100.00;101829.03;5072985;28;20488;-71
2022/05/08 02:06:05;;;;;;;0.97;0.73;;;;;;;13.30;100.00;101837.50;5072704;28;20449;-72
2022/05/08 02:08:31;;;;;;;2.40;1.70;;;;;;;13.27;100.00;101827.97;5072964;28;20464;-71
2022/05/08 02:10:58;;;;;;;1.70;1.23;;;;;;;13.33;100.00;101826.84;5073022;28;20445;-72
2022/05/08 02:13:25;;;;;;;1.80;1.60;;;;;;;13.31;100.00;101826.31;5073010;28;20856;-71
2022/05/08 02:15:52;;;;;;;1.43;1.30;;;;;;;13.36;100.00;101834.41;5072656;28;20961;-72
2022/05/08 02:18:18;;;;;;;1.50;1.00;;;;;;;13.34;100.00;101833.91;5072854;28;20461;-72
2022/05/08 02:20:45;;;;;;;1.93;1.20;;;;;;;13.34;100.00;101844.78;5072919;28;20437;-71
2022/05/08 02:23:11;;;;;;;1.83;1.60;;;;;;;13.28;100.00;101840.50;5072813;28;20485;-72
2022/05/08 02:25:38;;;;;;;2.00;1.13;;;;;;;13.23;100.00;101837.81;5072553;28;20449;-72
2022/05/08 02:28:05;;;;;;;0.93;0.80;;;;;;;13.21;100.00;101837.28;5072802;28;20449;-71
2022/05/08 02:30:33;;;;;;;1.60;1.07;;;;;;;13.10;100.00;101844.75;5072845;28;20623;-72
2022/05/08 02:33:00;;;;;;;1.67;1.30;;;;;;;13.03;100.00;101848.88;5072750;28;20445;-71
2022/05/08 02:35:26;;;;;;;2.37;1.43;;;;;;;13.02;100.00;101847.28;5072755;28;20452;-72
2022/05/08 02:37:55;;;;;;;1.30;1.20;;;;;;;13.02;100.00;101852.72;5072427;28;20526;-72
2022/05/08 02:40:23;;;;;;;3.17;2.00;;;;;;;13.07;100.00;101849.94;5072680;28;20445;-72
2022/05/08 02:42:50;;;;;;;2.40;2.20;;;;;;;13.12;100.00;101852.59;5072642;28;20481;-71
2022/05/08 02:45:16;;;;;;;3.10;1.80;;;;;;;13.12;100.00;101852.59;5072313;28;20930;-71
2022/05/08 02:47:44;;;;;;;2.37;1.37;;;;;;;13.13;100.00;101852.31;5072593;28;20485;-73
2022/05/08 02:50:11;;;;;;;2.63;1.47;;;;;;;13.13;100.00;101846.88;5072495;28;20965;-72
2022/05/08 02:52:39;;;;;;;2.93;1.83;;;;;;;13.19;100.00;101847.63;5072583;28;20446;-72
2022/05/08 03:00:35;;;;;;;5.83;1.67;;;;;;;13.20;100.00;101857.44;5074956;28;20852;-72
2022/05/08 03:03:05;;;;;;;2.13;1.47;;;;;;;13.22;100.00;101857.97;5076022;28;20534;-72
2022/05/08 03:05:32;;;;;;;2.00;1.77;;;;;;;13.20;100.00;101856.63;5076090;28;20970;-71
2022/05/08 03:07:58;;;;;;;2.57;1.80;;;;;;;13.13;100.00;101859.66;5075924;28;20488;-72
2022/05/08 03:10:25;;;;;;;3.73;2.37;;;;;;;13.12;100.00;101858.03;5076061;28;20868;-72
2022/05/08 03:12:51;;;;;;;2.77;2.10;;;;;;;13.09;100.00;101862.13;5075923;28;20441;-71
2022/05/08 03:15:18;;;;;;;1.97;1.43;;;;;;;13.00;100.00;101871.22;5076073;28;20492;-71
2022/05/08 03:17:44;;;;;;;3.00;2.00;;;;;;;12.98;100.00;101867.97;5075817;28;20510;-72
2022/05/08 03:20:13;;;;;;;3.13;2.27;;;;;;;12.91;100.00;101870.19;5075795;28;20487;-71
2022/05/08 03:22:39;;;;;;;2.57;1.60;;;;;;;12.87;100.00;101876.19;5075682;28;20450;-69
2022/05/08 03:25:06;;;;;;;2.23;1.40;;;;;;;12.77;100.00;101881.72;5075836;28;20441;-70
2022/05/08 03:27:32;;;;;;;2.10;1.60;;;;;;;12.72;100.00;101876.34;5075303;28;20990;-70
2022/05/08 03:29:59;;;;;;;4.30;2.27;;;;;;;12.62;100.00;101885.38;5075649;28;20449;-70
2022/05/08 03:32:25;;;;;;;3.00;1.70;;;;;;;12.65;100.00;101880.47;5075567;28;20859;-70
2022/05/08 03:34:52;;;;;;;3.93;1.87;;;;;;;12.51;100.00;101886.53;5075251;28;20941;-70
2022/05/08 03:37:20;;;;;;;2.50;1.53;;;;;;;12.49;100.00;101882.50;5075314;28;20477;-70
2022/05/08 03:39:46;;;;;;;5.43;1.80;;;;;;;12.54;100.00;101890.59;5075483;28;20811;-71
2022/05/08 03:42:13;;;;;;;2.07;1.87;;;;;;;12.44;100.00;101882.50;5075427;28;20434;-69
2022/05/08 03:44:40;;;;;;;0.90;0.80;;;;;;;12.47;100.00;101884.66;5075351;28;20480;-72
2022/05/08 03:47:06;;;;;;;2.93;1.63;;;;;;;12.34;100.00;101878.75;5075330;28;20465;-74
2022/05/08 03:49:33;;;;;;;2.77;2.03;;;;;;;12.32;100.00;101891.00;5074975;28;20934;-74
2022/05/08 03:51:59;;;;;;;2.97;1.73;;;;;;;12.32;100.00;101894.53;5075318;28;20445;-74
2022/05/08 03:54:27;;;;;;;2.23;1.40;;;;;;;12.32;100.00;101891.81;5075154;28;20449;-74
2022/05/08 03:56:54;;;;;;;10.23;1.77;;;;;;;12.29;100.00;101897.78;5074743;28;20982;-73
2022/05/08 03:59:20;;;;;;;1.63;1.50;;;;;;;12.18;100.00;101893.53;5075060;28;20495;-73
2022/05/08 04:01:46;;;;;;;4.20;1.80;;;;;;;12.10;99.57;101894.09;5075142;28;20445;-73
2022/05/08 04:04:13;;;;;;;2.50;1.60;;;;;;;12.20;100.00;101898.66;5074886;28;20481;-73
2022/05/08 04:06:40;;;;;;;3.70;1.80;;;;;;;12.18;99.66;101898.97;5074822;28;20504;-73
2022/05/08 04:09:06;;;;;;;4.10;1.50;;;;;;;12.20;97.67;101894.03;5075028;28;20448;-73
2022/05/08 04:11:34;;;;;;;1.97;1.20;;;;;;;12.26;97.51;101906.53;5073833;28;20440;-72
2022/05/08 04:14:00;;;;;;;7.23;1.47;;;;;;;12.29;97.20;101905.13;5074761;28;20452;-73
2022/05/08 04:16:27;;;;;;;3.93;2.00;;;;;;;12.30;95.80;101910.28;5074684;28;20942;-73
2022/05/08 04:18:53;;;;;;;8.10;1.80;;;;;;;12.38;95.20;101908.91;5074770;28;20442;-73
2022/05/08 04:21:20;;;;;;;1.47;1.00;;;;;;;12.34;95.67;101899.66;5074713;28;20441;-73
2022/05/08 04:26:28;;;;;;;3.27;2.03;;;;;;;12.32;97.95;101904.59;5061412;28;20437;-73
2022/05/08 04:28:56;;;;;;;4.30;2.27;;;;;;;12.37;98.64;101913.50;5074565;28;20449;-73
2022/05/08 04:31:23;;;;;;;11.40;2.10;;;;;;;12.41;98.50;101911.06;5074444;28;20457;-72
2022/05/08 04:33:49;;;;;;;2.77;1.60;;;;;;;12.44;98.88;101910.50;5074407;28;20434;-73
2022/05/08 04:36:17;;;;;;;1.50;1.30;;;;;;;12.54;98.67;101909.63;5073892;28;20850;-73
2022/05/08 04:38:43;;;;;;;3.50;1.70;;;;;;;12.55;97.96;101914.78;5074311;28;20475;-72
2022/05/08 04:41:09;;;;;;;3.20;2.23;;;;;;;12.52;97.85;101928.09;5074233;28;20441;-73
2022/05/08 04:43:36;;;;;;;2.23;1.43;;;;;;;12.46;96.93;101927.31;5073728;28;20864;-73
2022/05/08 04:46:04;;;;;;;8.83;1.67;;;;;;;12.47;96.47;101939.00;5074125;28;20445;-73
2022/05/08 04:48:30;;;;;;;2.37;1.63;;;;;;;12.38;94.95;101942.31;5074062;28;20461;-73
2022/05/08 04:50:57;;;;;;;4.10;1.57;;;;;;;12.48;96.15;101946.06;5073714;28;20441;-73
2022/05/08 04:53:23;;;;;;;3.53;1.73;;;;;;;12.57;95.11;101944.38;5074022;28;20447;-73
2022/05/08 04:55:50;;;;;;;8.43;2.10;;;;;;;12.63;95.20;101954.16;5073987;28;20816;-73
2022/05/08 04:58:16;;;;;;;2.50;1.73;;;;;;;12.71;95.84;101960.91;5073521;28;20469;-73
2022/05/08 05:00:43;;;;;;;2.30;1.43;;;;;;;12.79;96.75;101950.25;5073861;28;20437;-73
2022/05/08 05:03:11;;;;;;;3.00;1.73;;;;;;;12.88;96.12;101954.00;5073753;28;20441;-72
2022/05/08 05:05:37;;;;;;;8.30;2.47;;;;;;;12.92;96.38;101943.34;5073696;28;20441;-72
2022/05/08 05:08:05;;;;;;;2.27;1.50;;;;;;;12.90;96.71;101950.16;5073708;28;20464;-72
2022/05/08 05:10:32;;;;;;;3.47;1.83;;;;;;;12.91;96.22;101955.31;5073672;28;20445;-72
2022/05/08 05:12:58;;;;;;;2.53;2.00;;;;;;;12.92;94.88;101954.22;5073675;28;20441;-72
2022/05/08 05:15:25;;;;;;;2.80;1.67;;;;;;;12.96;95.15;101954.47;5073602;28;20532;-70
2022/05/08 05:17:51;;;;;;;3.80;2.17;;;;;;;12.93;94.60;101963.22;5073538;28;20493;-70
2022/05/08 05:20:20;;;;;;;5.40;1.77;;;;;;;12.64;93.56;101955.75;5073537;28;20437;-69
2022/05/08 05:22:46;;;;;;;3.10;1.70;;;;;;;12.70;94.35;101962.78;5073236;28;20437;-71
2022/05/08 05:25:12;;;;;;;2.67;1.70;;;;;;;12.83;94.76;101964.88;5073058;28;20538;-71
2022/05/08 05:27:39;;;;;;;6.70;1.63;;;;;;;12.68;93.62;101973.16;5073401;28;20515;-72
2022/05/08 05:30:06;;;;;;;4.00;2.50;;;;;;;12.71;94.97;101975.31;5073469;28;20445;-71
2022/05/08 05:32:32;;;;;;;1.87;1.67;;;;;;;12.84;95.27;101968.44;5073393;28;20864;-69
2022/05/08 05:34:59;;;;;;;1.90;1.53;;;;;;;12.90;94.58;101969.19;5073350;28;20433;-70
2022/05/08 05:37:27;;;;;;;17.60;2.40;;;;;;;12.79;92.76;101969.28;5072972;28;20496;-70
2022/05/08 05:39:53;;;;;;;3.87;1.97;;;;;;;12.91;92.23;101965.38;5074716;28;20833;-72
2022/05/08 05:42:19;;;;;;;4.13;2.00;;;;;;;13.08;92.46;101971.25;5073259;28;20441;-72
2022/05/08 05:44:46;;;;;;;4.67;1.83;;;;;;;13.25;91.88;101981.75;5073181;28;20485;-72
2022/05/08 05:49:56;;;;;;;6.03;2.10;;;;;;;13.41;89.28;101982.44;5073292;28;20409;-71
2022/05/08 05:52:23;;;;;;;4.90;2.20;;;;;;;13.52;87.32;101986.69;5073169;28;20448;-71
2022/05/08 05:54:50;;;;;;;7.90;1.63;;;;;;;13.62;87.68;101994.75;5073213;28;20465;-71
2022/05/08 05:57:17;;;;;;;5.40;1.90;;;;;;;13.70;86.68;101993.34;5073087;28;20457;-72
2022/05/08 05:59:43;;;;;;;3.37;1.87;;;;;;;13.55;84.48;101989.66;5073081;28;20495;-69
2022/05/08 06:02:09;;;;;;;1.57;1.10;;;;;;;13.70;85.41;101994.16;5073099;28;20445;-68
2022/05/08 06:04:36;;;;;;;7.83;1.80;;;;;;;13.79;85.08;101997.06;5073013;28;20480;-72
2022/05/08 06:07:03;;;;;;;6.40;1.10;;;;;;;13.82;84.70;101997.31;5072989;28;20472;-74
2022/05/08 06:09:29;;;;;;;5.63;2.23;;;;;;;13.80;83.21;102002.22;5073104;28;20445;-74
2022/05/08 06:11:57;;;;;;;4.00;1.50;;;;;;;13.78;82.46;102000.88;5073128;28;20450;-74
2022/05/08 06:14:23;;;;;;;4.23;1.87;;;;;;;13.64;81.15;102003.47;5073020;28;20857;-74
2022/05/08 06:16:50;;;;;;;16.03;1.60;;;;;;;13.67;81.42;102002.88;5072894;28;20453;-72
2022/05/08 06:19:16;;;;;;;4.00;1.90;;;;;;;13.32;79.77;101998.56;5072972;28;20444;-74
2022/05/08 06:21:43;;;;;;;5.30;1.30;;;;;;;13.41;81.45;101999.56;5072958;28;20503;-74
2022/05/08 06:24:09;;;;;;;6.77;0.97;;;;;;;13.57;82.17;102009.25;5072826;28;20480;-72
2022/05/08 06:26:36;;;;;;;2.37;1.30;;;;;;;13.74;83.39;102008.81;5072469;28;20990;-74
2022/05/08 06:29:04;;;;;;;4.20;1.37;;;;;;;13.80;82.26;102010.38;5072858;28;20495;-73
2022/05/08 06:31:30;;;;;;;2.97;1.03;;;;;;;13.85;82.48;102017.69;5072806;28;20457;-73
2022/05/08 06:33:57;;;;;;;3.60;1.80;;;;;;;13.93;81.17;102017.06;5073131;28;20438;-72
2022/05/08 06:36:24;;;;;;;2.47;1.40;;;;;;;13.97;80.85;102017.31;5076382;28;20436;-73
2022/05/08 06:38:50;;;;;;;1.87;1.23;;;;;;;13.99;81.54;102018.66;5076368;28;20922;-73
2022/05/08 06:41:17;;;;;;;5.17;1.50;;;;;;;14.06;81.92;102016.38;5076542;28;20440;-72
2022/05/08 06:43:44;;;;;;;3.60;1.37;;;;;;;14.15;81.00;102022.00;5076417;28;20437;-73
2022/05/08 06:46:12;;;;;;;3.10;1.20;;;;;;;14.20;80.43;102015.69;5076526;28;20795;-73
2022/05/08 06:48:39;;;;;;;4.07;2.00;;;;;;;14.27;80.78;102019.69;5076425;28;20458;-75
2022/05/08 06:51:05;;;;;;;3.33;1.63;;;;;;;14.20;79.80;102024.66;5076327;28;20448;-75
2022/05/08 06:53:32;;;;;;;6.20;2.10;;;;;;;14.08;80.11;102016.91;5076352;28;20448;-75
2022/05/08 06:55:59;;;;;;;3.10;1.70;;;;;;;14.13;79.63;102014.13;5076243;28;20452;-71
2022/05/08 06:58:25;;;;;;;7.70;2.07;;;;;;;14.05;80.95;102022.94;5076206;28;20865;-69
2022/05/08 07:03:39;;;;;;;1.10;1.00;;;;;;;13.79;78.69;102019.66;5076507;28;20490;-74
2022/05/08 07:06:05;;;;;;;7.20;2.27;;;;;;;13.70;78.15;102026.81;5076040;28;20491;-73
2022/05/08 07:08:33;;;;;;;3.43;1.70;;;;;;;13.72;79.09;102023.81;5075992;28;20482;-74
2022/05/08 07:11:00;;;;;;;2.73;1.60;;;;;;;13.54;77.64;102028.03;5076050;28;20511;-73
2022/05/08 07:13:26;;;;;;;7.40;1.37;;;;;;;13.46;80.10;102023.22;5075904;28;21004;-75
2022/05/08 07:15:53;;;;;;;8.00;1.83;;;;;;;13.54;81.60;102028.84;5075865;28;20475;-74
2022/05/08 07:18:21;;;;;;;4.80;2.27;;;;;;;13.64;80.68;102030.69;5075834;28;20485;-74
2022/05/08 07:20:49;;;;;;;4.37;2.00;;;;;;;13.66;79.01;102036.66;5075805;28;20503;-74
2022/05/08 07:23:15;;;;;;;3.50;1.73;;;;;;;13.71;78.31;102036.63;5075455;28;20965;-74
2022/05/08 07:25:42;;;;;;;9.70;1.73;;;;;;;13.72;78.80;102031.97;5075660;28;20477;-73
2022/05/08 07:28:08;;;;;;;3.80;1.60;;;;;;;13.75;81.11;102034.94;5075372;28;20526;-74
2022/05/08 07:30:35;;;;;;;3.40;1.87;;;;;;;13.80;81.70;102031.34;5075807;28;20445;-74
2022/05/08 07:33:01;;;;;;;7.37;1.93;;;;;;;13.81;80.60;102024.81;5075626;28;20815;-73
2022/05/08 07:38:16;;;;;;;17.63;1.80;;;;;;;13.95;79.52;102031.22;5075144;28;20467;-73
2022/05/08 07:40:47;;;;;;;5.30;1.60;;;;;;;14.05;78.97;102033.84;5075526;28;20453;-74
2022/05/08 07:43:15;;;;;;;8.70;2.23;;;;;;;14.07;80.12;102041.72;5075451;28;20454;-73
2022/05/08 07:45:42;;;;;;;3.00;1.73;;;;;;;14.11;78.32;102034.59;5074979;28;20485;-73
2022/05/08 07:48:09;;;;;;;2.97;1.73;;;;;;;14.18;77.37;102037.78;5074897;28;20985;-74
2022/05/08 07:50:35;;;;;;;2.30;1.23;;;;;;;14.29;76.73;102031.09;5075376;28;20524;-73
2022/05/08 07:53:02;;;;;;;5.33;1.33;;;;;;;14.34;75.26;102031.06;5075252;28;20468;-73
2022/05/08 07:55:29;;;;;;;4.13;2.17;;;;;;;14.38;76.96;102031.28;5075185;28;20449;-74
2022/05/08 07:57:56;;;;;;;2.70;1.40;;;;;;;14.39;77.15;102033.72;5075108;28;20477;-74
2022/05/08 08:00:22;;;;;;;4.20;1.70;;;;;;;14.42;76.70;102039.69;5075103;28;20449;-74
2022/05/08 08:02:49;;;;;;;3.80;1.83;;;;;;;14.50;78.03;102036.34;5075048;28;20493;-74
2022/05/08 08:05:15;;;;;;;4.20;2.00;;;;;;;14.58;78.08;102038.44;5074904;28;20481;-74
2022/05/08 08:07:42;;;;;;;3.93;2.17;;;;;;;14.71;79.93;102032.28;5074879;28;20519;-74
2022/05/08 08:10:09;;;;;;;4.00;1.30;;;;;;;14.80;76.66;102044.16;5075118;28;20445;-74
2022/05/08 08:12:37;;;;;;;2.60;1.70;;;;;;;14.81;75.79;102037.56;5074832;28;20445;-74
2022/05/08 08:15:05;;;;;;;6.13;1.20;;;;;;;14.92;76.06;102040.16;5074753;28;20448;-74
2022/05/08 08:17:31;;;;;;;2.30;1.13;;;;;;;15.03;75.90;102036.19;5074726;28;20461;-75
2022/05/08 08:19:57;;;;;;;3.63;1.63;;;;;;;15.10;74.26;102037.44;5074496;28;20494;-75
2022/05/08 08:22:24;;;;;;;3.77;2.03;;;;;;;15.19;73.50;102050.44;5074628;28;20454;-74
2022/05/08 08:24:50;;;;;;;3.33;1.33;;;;;;;15.18;70.75;102046.88;5074581;28;20519;-74
2022/05/08 08:27:18;;;;;;;4.57;1.60;;;;;;;15.32;69.13;102050.50;5060750;28;20516;-74
2022/05/08 08:29:46;;;;;;;3.03;1.50;;;;;;;15.34;68.57;102056.44;5053074;28;20804;-74
2022/05/08 08:32:13;;;;;;;2.40;1.57;;;;;;;15.49;68.43;102054.59;5053244;28;20434;-74
2022/05/08 08:34:39;;;;;;;3.33;1.27;;;;;;;15.62;67.18;102057.34;5052654;28;20434;-74
2022/05/08 08:37:08;;;;;;;3.60;2.17;;;;;;;15.70;67.03;102055.91;5052750;28;21141;-74
2022/05/08 08:39:34;;;;;;;15.33;1.40;;;;;;;15.75;69.22;102049.53;5053099;28;20537;-74
2022/05/08 08:42:05;;;;;;;6.53;1.37;;;;;;;15.79;69.53;102048.63;5052796;28;20472;-75
2022/05/08 08:50:04;;;;;;;3.80;0.97;;;;;;;16.04;66.95;102060.22;5054179;28;20409;-73
2022/05/08 08:52:31;;;;;;;6.10;1.30;;;;;;;16.06;65.03;102063.47;5054067;28;20442;-74
2022/05/08 08:54:57;;;;;;;7.93;1.30;;;;;;;16.15;65.94;102065.19;5052989;28;20480;-74
2022/05/08 08:57:24;;;;;;;5.70;1.67;;;;;;;16.04;64.80;102066.50;5052166;28;20458;-75
2022/05/08 08:59:50;;;;;;;5.10;1.30;;;;;;;16.03;66.45;102064.09;5052538;28;20508;-74
2022/05/08 09:02:20;;;;;;;3.80;1.40;;;;;;;16.06;64.01;102067.00;5052548;28;20445;-73
2022/05/08 09:04:48;;;;;;;2.60;1.50;;;;;;;16.21;62.66;102067.84;5052226;28;20482;-74
2022/05/08 09:07:36;;;;;;;1.63;0.83;;;;;;;16.31;63.37;102071.19;5052283;28;20461;-74
2022/05/08 09:10:10;;;;;;;2.53;1.23;;;;;;;16.31;62.27;102070.38;5045620;28;21012;-73
2022/05/08 09:12:38;;;;;;;1.90;0.80;;;;;;;16.38;63.05;102074.34;5052114;28;20832;-73
2022/05/08 09:15:21;;;;;;;3.33;1.23;;;;;;;16.50;58.95;102073.00;5052385;28;20434;-74
2022/05/08 09:17:50;;;;;;;1.17;0.73;;;;;;;16.56;58.54;102080.81;5050989;28;20446;-74
2022/05/08 09:20:34;;;;;;;5.33;1.20;;;;;;;16.64;58.16;102069.16;5052208;28;20505;-74
2022/05/08 09:23:02;;;;;;;3.37;1.37;;;;;;;16.57;57.14;102085.19;5050284;28;20434;-74
2022/05/08 09:25:49;;;;;;;3.40;0.90;;;;;;;16.58;56.99;102094.19;5051658;28;20474;-74
2022/05/08 09:28:16;;;;;;;9.40;1.20;;;;;;;16.62;55.53;102082.34;5051037;28;20466;-73
2022/05/08 09:31:03;;;;;;;5.30;1.17;;;;;;;16.63;57.33;102078.47;5052732;28;20943;-73
2022/05/08 09:33:33;;;;;;;3.90;1.17;;;;;;;16.72;54.92;102075.88;5053385;28;20422;-74
2022/05/08 09:36:01;;;;;;;5.77;1.50;;;;;;;16.85;55.84;102080.50;5053656;28;20434;-74
2022/05/08 09:38:48;;;;;;;12.20;1.23;;;;;;;16.80;54.04;102077.88;5052905;28;20860;-74
2022/05/08 09:41:18;;;;;;;2.80;1.10;;;;;;;16.85;53.79;102080.50;5053344;28;20418;-74
2022/05/08 09:43:45;;;;;;;11.00;1.87;;;;;;;16.80;54.29;102075.16;5053266;28;20445;-74
2022/05/08 09:46:12;;;;;;;3.90;0.87;;;;;;;16.93;55.85;102083.66;5053235;28;20486;-74
2022/05/08 09:48:40;;;;;;;3.20;1.10;;;;;;;16.88;56.13;102079.91;5052901;28;20963;-73
2022/05/08 09:51:08;;;;;;;6.10;1.47;;;;;;;17.05;56.02;102083.94;5053371;28;20445;-73
2022/05/08 09:53:36;;;;;;;4.30;1.00;;;;;;;17.19;54.66;102081.97;5053322;28;20430;-74
2022/05/08 09:56:05;;;;;;;3.63;1.63;;;;;;;17.03;53.41;102086.97;5053116;28;20431;-73
2022/05/08 09:58:32;;;;;;;1.40;0.80;;;;;;;17.13;52.18;102077.69;5053029;28;20494;-73
2022/05/08 10:00:59;;;;;;;5.63;1.43;;;;;;;17.17;55.05;102075.16;5053175;28;20442;-73
2022/05/08 10:03:26;;;;;;;1.10;0.77;;;;;;;17.30;53.15;102080.59;5053038;28;20469;-74
2022/05/08 10:05:55;;;;;;;6.83;1.00;;;;;;;17.34;52.03;102080.78;5052929;28;20520;-73
2022/05/08 10:08:24;;;;;;;2.20;1.40;;;;;;;17.51;53.09;102069.16;5053124;28;20504;-74
2022/05/08 10:14:03;;;;;;;3.37;1.20;;;;;;;17.64;51.03;102081.97;5056837;28;20788;-74
2022/05/08 10:17:03;;;;;;;4.13;1.17;;;;;;;17.53;50.99;102077.84;5057009;28;20426;-74
2022/05/08 10:19:53;;;;;;;1.27;0.70;;;;;;;17.52;51.70;102079.78;5057035;28;20454;-73
2022/05/08 10:22:22;;;;;;;9.30;1.63;;;;;;;17.63;50.59;102083.13;5056979;28;20431;-74
2022/05/08 10:24:54;;;;;;;7.50;1.90;;;;;;;17.53;48.54;102081.44;5055053;28;20515;-74
2022/05/08 10:27:28;;;;;;;3.60;1.40;;;;;;;17.66;48.38;102076.97;5052877;28;20553;-73
2022/05/08 10:30:21;;;;;;;3.07;1.07;;;;;;;17.71;48.79;102076.03;5056461;28;20483;-73
2022/05/08 10:32:52;;;;;;;1.87;0.83;;;;;;;17.74;49.94;102087.22;5056006;28;20479;-73
2022/05/08 10:35:20;;;;;;;3.70;1.20;;;;;;;17.82;49.04;102078.25;5055614;28;20439;-74
2022/05/08 10:37:50;;;;;;;1.20;0.70;;;;;;;18.01;49.60;102082.72;5056170;28;20478;-74
2022/05/08 10:40:35;;;;;;;1.60;1.03;;;;;;;18.02;50.13;102076.13;5056585;28;20846;-74
2022/05/08 10:43:25;;;;;;;2.00;1.07;;;;;;;18.05;50.73;102072.72;5056676;28;20418;-74
2022/05/08 10:45:53;;;;;;;3.40;1.43;;;;;;;18.27;50.42;102080.91;5056853;28;20470;-75
2022/05/08 10:48:21;;;;;;;3.60;0.90;;;;;;;18.47;49.18;102087.78;5055803;28;20466;-74
2022/05/08 10:50:48;;;;;;;4.20;1.53;;;;;;;18.54;49.57;102079.06;5055936;28;20449;-74
2022/05/08 10:53:30;;;;;;;2.83;1.10;;;;;;;18.69;48.58;102075.91;5056406;28;20450;-74
2022/05/08 10:56:04;;;;;;;4.67;0.90;;;;;;;18.77;48.79;102071.56;5056462;28;20430;-74
2022/05/08 10:58:30;;;;;;;2.60;1.20;;;;;;;18.68;45.80;102077.00;5056055;28;20486;-74
2022/05/08 11:00:58;;;;;;;4.07;1.00;;;;;;;18.62;46.37;102073.59;5056343;28;20446;-74
2022/05/08 11:03:26;;;;;;;3.40;1.00;;;;;;;18.87;45.35;102074.81;5056297;28;20481;-74
2022/05/08 11:05:53;;;;;;;3.53;0.90;;;;;;;18.87;43.00;102065.78;5056115;28;20486;-74
2022/05/08 11:08:28;;;;;;;1.60;1.00;;;;;;;19.08;44.05;102072.28;5055878;28;20493;-74
2022/05/08 11:11:07;;;;;;;0.90;0.53;;;;;;;19.25;41.96;102082.44;5056047;28;20496;-73
2022/05/08 11:13:54;;;;;;;1.37;0.73;;;;;;;19.64;39.03;102075.97;5055930;28;20434;-73
2022/05/08 11:16:37;;;;;;;1.23;0.67;;;;;;;20.40;36.99;102082.69;5050910;28;20469;-74
2022/05/08 11:19:05;;;;;;;4.57;0.83;;;;;;;21.10;35.68;102077.59;5055972;28;20457;-74
2022/05/08 11:21:32;;;;;;;5.77;1.00;;;;;;;21.67;35.24;102083.25;5055224;28;20449;-74
2022/05/08 11:23:58;;;;;;;2.23;0.70;;;;;;;22.24;34.81;102081.69;5055714;28;20860;-74
2022/05/08 11:26:31;;;;;;;3.90;0.93;;;;;;;22.65;34.74;102080.63;5055515;28;20995;-75
2022/05/08 11:28:58;;;;;;;1.50;0.60;;;;;;;22.67;31.50;102080.31;5055559;28;20446;-74
2022/05/08 11:31:27;;;;;;;4.40;0.60;;;;;;;22.82;32.14;102082.34;5055900;28;20450;-74
2022/05/08 11:36:39;;;;;;;3.17;1.27;;;;;;;23.72;27.41;102082.22;5055327;28;20461;-75
2022/05/08 11:39:10;;;;;;;2.87;2.00;;;;;;;23.86;27.61;102086.19;5055661;28;20533;-74
2022/05/08 11:41:39;;;;;;;4.17;0.93;;;;;;;24.16;27.66;102092.06;5055597;28;20846;-75
2022/05/08 11:44:24;;;;;;;3.00;0.60;;;;;;;24.59;25.96;102093.16;5055453;28;20445;-75
2022/05/08 11:46:54;;;;;;;1.00;0.50;;;;;;;24.19;26.55;102085.03;5055239;28;20974;-74
2022/05/08 11:49:22;;;;;;;1.40;0.87;;;;;;;24.88;26.15;102094.63;5055392;28;20513;-73
2022/05/08 11:51:50;;;;;;;0.80;0.60;;;;;;;25.23;25.06;102095.75;5055277;28;20446;-72
2022/05/08 11:54:35;;;;;;;1.20;0.60;;;;;;;26.06;24.37;102088.66;5054918;28;20962;-73
2022/05/08 11:57:16;;;;;;;1.70;0.90;;;;;;;25.81;24.99;102091.00;5055234;28;20464;-73